createdAt,value
2018-12-13T00:00:34.804Z,102896.09
2018-12-13T00:03:04.083Z,102897.08
2018-12-13T00:05:33.351Z,102896.30
2018-12-13T00:08:01.657Z,102885.78
2018-12-13T00:10:29.009Z,102890.70
2018-12-13T00:12:58.250Z,102888.08
2018-12-13T00:15:30.072Z,102896.16
2018-12-13T00:17:57.293Z,102890.55
2018-12-13T00:20:25.222Z,102890.19
2018-12-13T00:22:52.716Z,102884.59
2018-12-13T00:25:20.169Z,102885.28
2018-12-13T00:27:47.404Z,102880.34
2018-12-13T00:30:14.761Z,102874.14
2018-12-13T00:32:43.000Z,102876.78
2018-12-13T00:35:10.216Z,102875.24
2018-12-13T00:37:38.469Z,102878.19
2018-12-13T00:40:05.948Z,102880.77
2018-12-13T00:42:33.653Z,102881.67
2018-12-13T00:45:00.877Z,102879.00
2018-12-13T00:47:28.105Z,102881.82
2018-12-13T00:49:55.328Z,102879.00
2018-12-13T00:52:22.603Z,102886.39
2018-12-13T00:54:50.844Z,102884.55
2018-12-13T00:57:18.056Z,102889.12
2018-12-13T00:59:45.286Z,102892.07
2018-12-13T01:02:12.496Z,102896.28
2018-12-13T01:04:39.723Z,102891.94
2018-12-13T01:07:08.160Z,102894.33
2018-12-13T01:09:35.634Z,102890.04
2018-12-13T01:12:02.840Z,102890.64
2018-12-13T01:14:30.096Z,102890.86
2018-12-13T01:16:57.301Z,102889.47
2018-12-13T01:19:24.521Z,102889.55
2018-12-13T01:21:51.788Z,102886.91
2018-12-13T01:27:11.989Z,102881.81
2018-12-13T01:29:39.421Z,102882.17
2018-12-13T01:32:08.711Z,102877.05
2018-12-13T01:34:35.936Z,102878.75
2018-12-13T01:37:03.223Z,102879.71
2018-12-13T01:39:30.622Z,102880.33
2018-12-13T01:41:57.828Z,102879.38
2018-12-13T01:47:19.164Z,102883.06
2018-12-13T01:49:47.200Z,102887.41
2018-12-13T01:52:16.044Z,102878.82
2018-12-13T01:54:44.483Z,102881.09
2018-12-13T01:57:11.809Z,102875.14
2018-12-13T01:59:39.034Z,102878.67
2018-12-13T02:02:06.254Z,102873.97
2018-12-13T02:04:33.784Z,102869.80
2018-12-13T02:07:01.170Z,102869.46
2018-12-13T02:09:29.404Z,102873.60
2018-12-13T02:11:56.624Z,102868.25
2018-12-13T02:14:23.840Z,102865.09
2018-12-13T02:16:51.048Z,102867.36
2018-12-13T02:19:18.370Z,102866.39
2018-12-13T02:21:46.593Z,102865.09
2018-12-13T02:24:13.828Z,102867.48
2018-12-13T02:26:41.172Z,102868.45
2018-12-13T02:29:08.456Z,102863.91
2018-12-13T02:31:35.709Z,102864.80
2018-12-13T02:34:02.972Z,102864.55
2018-12-13T02:36:30.186Z,102862.76
2018-12-13T02:38:57.410Z,102859.50
2018-12-13T02:41:24.852Z,102858.29
2018-12-13T02:43:52.076Z,102859.80
2018-12-13T02:46:19.347Z,102858.61
2018-12-13T02:48:46.647Z,102855.66
2018-12-13T02:51:13.865Z,102857.75
2018-12-13T02:53:41.152Z,102858.13
2018-12-13T02:56:08.379Z,102853.46
2018-12-13T02:58:36.882Z,102849.73
2018-12-13T03:01:05.253Z,102853.41
2018-12-13T03:03:32.468Z,102846.58
2018-12-13T03:05:59.692Z,102854.33
2018-12-13T03:08:26.913Z,102849.88
2018-12-13T03:10:56.289Z,102840.22
2018-12-13T03:13:23.485Z,102843.70
2018-12-13T03:15:50.708Z,102841.25
2018-12-13T03:18:31.164Z,102836.86
2018-12-13T03:20:58.407Z,102842.09
2018-12-13T03:23:25.642Z,102841.70
2018-12-13T03:25:52.934Z,102843.28
2018-12-13T03:28:20.157Z,102843.30
2018-12-13T03:30:47.405Z,102835.88
2018-12-13T03:33:15.747Z,102836.69
2018-12-13T03:35:43.203Z,102841.83
2018-12-13T03:38:10.440Z,102835.25
2018-12-13T03:40:38.004Z,102830.69
2018-12-13T03:43:05.236Z,102828.86
2018-12-13T03:45:32.496Z,102823.62
2018-12-13T03:47:59.722Z,102826.75
2018-12-13T03:50:26.989Z,102823.18
2018-12-13T03:52:54.229Z,102822.64
2018-12-13T03:55:21.474Z,102815.00
2018-12-13T03:57:48.812Z,102823.48
2018-12-13T04:00:16.058Z,102810.61
2018-12-13T04:02:43.403Z,102815.09
2018-12-13T04:05:10.648Z,102813.97
2018-12-13T04:07:37.876Z,102807.22
2018-12-13T04:10:05.276Z,102809.58
2018-12-13T04:12:32.520Z,102807.83
2018-12-13T04:14:59.745Z,102811.95
2018-12-13T04:17:26.985Z,102824.55
2018-12-13T04:19:56.248Z,102818.88
2018-12-13T04:22:23.473Z,102821.56
2018-12-13T04:24:51.068Z,102829.84
2018-12-13T04:27:18.305Z,102823.20
2018-12-13T04:29:45.559Z,102823.63
2018-12-13T04:32:12.817Z,102829.24
2018-12-13T04:34:40.067Z,102832.36
2018-12-13T04:37:07.313Z,102823.37
2018-12-13T04:39:35.644Z,102825.60
2018-12-13T04:42:02.892Z,102819.33
2018-12-13T04:44:30.124Z,102811.75
2018-12-13T04:46:57.359Z,102811.34
2018-12-13T04:49:24.591Z,102796.55
2018-12-13T04:51:51.955Z,102790.03
2018-12-13T04:54:19.190Z,102787.29
2018-12-13T04:56:46.431Z,102783.48
2018-12-13T04:59:13.652Z,102786.52
2018-12-13T05:01:41.160Z,102792.39
2018-12-13T05:04:08.384Z,102795.59
2018-12-13T05:06:35.613Z,102782.02
2018-12-13T05:09:06.060Z,102781.55
2018-12-13T05:11:35.124Z,102781.59
2018-12-13T05:14:02.347Z,102776.09
2018-12-13T05:16:29.594Z,102776.33
2018-12-13T05:18:56.820Z,102771.09
2018-12-13T05:21:24.193Z,102766.31
2018-12-13T05:23:51.420Z,102764.98
2018-12-13T05:26:18.676Z,102761.41
2018-12-13T05:28:45.901Z,102767.42
2018-12-13T05:31:13.153Z,102764.18
2018-12-13T05:33:40.412Z,102767.65
2018-12-13T05:36:07.649Z,102770.80
2018-12-13T05:38:35.973Z,102763.80
2018-12-13T05:41:03.319Z,102767.10
2018-12-13T05:43:30.536Z,102766.25
2018-12-13T05:45:57.895Z,102766.52
2018-12-13T05:48:27.295Z,102759.67
2018-12-13T05:50:54.580Z,102759.84
2018-12-13T05:53:21.802Z,102758.63
2018-12-13T05:55:49.040Z,102759.75
2018-12-13T05:58:16.257Z,102757.47
2018-12-13T06:00:43.500Z,102752.67
2018-12-13T06:03:10.724Z,102757.08
2018-12-13T06:05:37.988Z,102755.48
2018-12-13T06:08:05.214Z,102751.94
2018-12-13T06:10:32.440Z,102752.33
2018-12-13T06:12:59.688Z,102763.87
2018-12-13T06:15:26.908Z,102761.48
2018-12-13T06:17:54.266Z,102761.83
2018-12-13T06:20:21.488Z,102759.88
2018-12-13T06:22:48.720Z,102756.97
2018-12-13T06:25:15.962Z,102756.61
2018-12-13T06:27:43.196Z,102756.17
2018-12-13T06:30:10.550Z,102758.00
2018-12-13T06:32:37.805Z,102762.81
2018-12-13T06:35:05.469Z,102761.52
2018-12-13T06:37:32.758Z,102765.66
2018-12-13T06:39:59.984Z,102756.86
2018-12-13T06:42:27.208Z,102763.08
2018-12-13T06:44:54.428Z,102754.44
2018-12-13T06:47:21.674Z,102752.14
2018-12-13T06:49:48.914Z,102747.00
2018-12-13T06:52:16.167Z,102753.61
2018-12-13T06:54:43.388Z,102752.05
2018-12-13T06:57:10.656Z,102758.72
2018-12-13T06:59:37.890Z,102765.66
2018-12-13T07:02:05.120Z,102759.23
2018-12-13T07:04:32.328Z,102762.13
2018-12-13T07:06:59.556Z,102756.45
2018-12-13T07:09:26.844Z,102750.16
2018-12-13T07:11:54.099Z,102745.58
2018-12-13T07:17:14.212Z,102748.13
2018-12-13T07:19:41.480Z,102751.38
2018-12-13T07:22:08.731Z,102744.02
2018-12-13T07:24:35.948Z,102751.06
2018-12-13T07:27:03.441Z,102751.17
2018-12-13T07:29:30.800Z,102752.09
2018-12-13T07:31:58.021Z,102745.14
2018-12-13T07:34:25.580Z,102744.80
2018-12-13T07:36:52.852Z,102748.41
2018-12-13T07:39:20.075Z,102748.52
2018-12-13T07:41:47.357Z,102755.73
2018-12-13T07:44:14.708Z,102748.61
2018-12-13T07:46:42.971Z,102746.98
2018-12-13T07:49:10.208Z,102742.89
2018-12-13T07:51:37.444Z,102747.45
2018-12-13T07:54:04.660Z,102743.81
2018-12-13T07:56:32.021Z,102744.33
2018-12-13T07:58:59.249Z,102747.48
2018-12-13T08:01:26.460Z,102743.12
2018-12-13T08:03:54.020Z,102739.42
2018-12-13T08:06:21.376Z,102739.06
2018-12-13T08:08:48.620Z,102739.40
2018-12-13T08:11:15.844Z,102735.30
2018-12-13T08:13:43.240Z,102737.69
2018-12-13T08:16:10.473Z,102736.97
2018-12-13T08:18:39.731Z,102730.02
2018-12-13T08:21:09.000Z,102737.50
2018-12-13T08:23:36.244Z,102732.44
2018-12-13T08:26:03.616Z,102728.55
2018-12-13T08:28:31.880Z,102731.66
2018-12-13T08:30:59.892Z,102729.91
2018-12-13T08:33:27.117Z,102718.69
2018-12-13T08:35:54.336Z,102714.53
2018-12-13T08:38:27.049Z,102711.62
2018-12-13T08:43:34.680Z,102721.23
2018-12-13T08:46:02.155Z,102725.39
2018-12-13T08:48:29.380Z,102714.00
2018-12-13T08:50:56.684Z,102720.87
2018-12-13T08:53:23.912Z,102719.61
2018-12-13T08:55:51.141Z,102720.50
2018-12-13T08:58:18.520Z,102714.87
2018-12-13T09:00:45.743Z,102720.69
2018-12-13T09:03:12.964Z,102715.61
2018-12-13T09:05:41.797Z,102716.77
2018-12-13T09:08:09.172Z,102714.07
2018-12-13T09:10:36.423Z,102709.77
2018-12-13T09:13:03.861Z,102704.06
2018-12-13T09:15:31.097Z,102709.41
2018-12-13T09:17:58.550Z,102704.46
2018-12-13T09:20:25.856Z,102705.92
2018-12-13T09:22:53.102Z,102706.20
2018-12-13T09:25:20.425Z,102706.42
2018-12-13T09:27:47.801Z,102707.63
2018-12-13T09:30:15.027Z,102710.08
2018-12-13T09:32:42.488Z,102712.03
2018-12-13T09:35:09.716Z,102707.09
2018-12-13T09:37:37.148Z,102707.48
2018-12-13T09:40:05.016Z,102701.89
2018-12-13T09:42:32.272Z,102697.95
2018-12-13T09:44:59.524Z,102702.23
2018-12-13T09:47:26.736Z,102702.99
2018-12-13T09:49:54.016Z,102698.34
2018-12-13T09:52:21.247Z,102698.66
2018-12-13T09:54:49.484Z,102695.81
2018-12-13T09:57:16.953Z,102699.59
2018-12-13T09:59:44.189Z,102686.98
2018-12-13T10:02:11.417Z,102692.51
2018-12-13T10:04:38.773Z,102695.36
2018-12-13T10:07:05.999Z,102684.52
2018-12-13T10:09:33.227Z,102687.22
2018-12-13T10:12:00.697Z,102686.48
2018-12-13T10:14:27.937Z,102683.57
2018-12-13T10:16:55.159Z,102685.92
2018-12-13T10:19:22.732Z,102679.12
2018-12-13T10:21:49.976Z,102678.45
2018-12-13T10:24:17.309Z,102678.70
2018-12-13T10:26:44.548Z,102682.12
2018-12-13T10:29:12.109Z,102671.09
2018-12-13T10:31:39.324Z,102674.75
2018-12-13T10:34:06.736Z,102664.09
2018-12-13T10:36:33.950Z,102658.45
2018-12-13T10:39:01.189Z,102666.73
2018-12-13T10:41:30.432Z,102661.89
2018-12-13T10:43:57.660Z,102661.26
2018-12-13T10:46:24.996Z,102658.84
2018-12-13T10:48:52.380Z,102662.48
2018-12-13T10:51:19.600Z,102666.75
2018-12-13T10:53:46.832Z,102663.63
2018-12-13T10:56:14.392Z,102669.98
2018-12-13T10:58:41.604Z,102666.91
2018-12-13T11:01:14.544Z,102672.06
2018-12-13T11:03:41.792Z,102667.14
2018-12-13T11:06:09.052Z,102662.97
2018-12-13T11:08:36.284Z,102667.55
2018-12-13T11:11:03.663Z,102657.77
2018-12-13T11:13:31.000Z,102660.25
2018-12-13T11:15:58.245Z,102665.23
2018-12-13T11:18:25.466Z,102663.36
2018-12-13T11:20:52.816Z,102661.97
2018-12-13T11:23:20.164Z,102654.33
2018-12-13T11:25:47.436Z,102654.67
2018-12-13T11:28:26.195Z,102649.56
2018-12-13T11:30:54.660Z,102641.84
2018-12-13T11:33:21.991Z,102646.03
2018-12-13T11:35:49.236Z,102642.25
2018-12-13T11:38:16.584Z,102636.13
2018-12-13T11:40:43.836Z,102638.16
2018-12-13T11:43:11.066Z,102635.06
2018-12-13T11:45:38.324Z,102638.38
2018-12-13T11:48:05.561Z,102638.51
2018-12-13T11:50:32.800Z,102635.30
2018-12-13T11:53:00.028Z,102638.27
2018-12-13T11:55:33.706Z,102646.14
2018-12-13T11:58:01.317Z,102636.89
2018-12-13T12:00:28.680Z,102635.30
2018-12-13T12:02:55.905Z,102633.34
2018-12-13T12:05:23.280Z,102628.59
2018-12-13T12:07:51.622Z,102630.89
2018-12-13T12:10:18.873Z,102629.39
2018-12-13T12:12:46.240Z,102627.68
2018-12-13T12:15:13.484Z,102628.19
2018-12-13T12:17:40.840Z,102631.30
2018-12-13T12:20:08.200Z,102629.20
2018-12-13T12:22:35.441Z,102628.56
2018-12-13T12:25:03.076Z,102628.91
2018-12-13T12:27:30.308Z,102631.39
2018-12-13T12:29:57.589Z,102632.22
2018-12-13T12:32:24.833Z,102627.88
2018-12-13T12:34:52.096Z,102629.94
2018-12-13T12:37:19.341Z,102624.34
2018-12-13T12:39:46.575Z,102624.52
2018-12-13T12:42:13.919Z,102625.57
2018-12-13T12:44:41.745Z,102627.73
2018-12-13T12:47:09.476Z,102625.53
2018-12-13T12:49:36.852Z,102627.63
2018-12-13T12:52:04.592Z,102620.55
2018-12-13T12:54:31.808Z,102615.86
2018-12-13T12:56:59.040Z,102618.86
2018-12-13T12:59:26.264Z,102615.47
2018-12-13T13:01:53.512Z,102615.57
2018-12-13T13:04:20.754Z,102605.58
2018-12-13T13:06:48.201Z,102605.36
2018-12-13T13:09:15.423Z,102612.76
2018-12-13T13:11:42.682Z,102613.66
2018-12-13T13:14:10.601Z,102612.94
2018-12-13T13:16:37.888Z,102613.50
2018-12-13T13:19:05.126Z,102611.19
2018-12-13T13:21:32.384Z,102606.56
2018-12-13T13:24:00.208Z,102610.34
2018-12-13T13:26:27.684Z,102607.81
2018-12-13T13:28:54.936Z,102603.11
2018-12-13T13:31:22.181Z,102604.66
2018-12-13T13:33:49.496Z,102605.94
2018-12-13T13:36:16.769Z,102602.04
2018-12-13T13:38:44.052Z,102601.70
2018-12-13T13:41:11.336Z,102603.34
2018-12-13T13:43:38.704Z,102609.33
2018-12-13T13:46:06.088Z,102615.30
2018-12-13T13:48:33.720Z,102605.48
2018-12-13T13:51:01.087Z,102602.89
2018-12-13T13:53:28.444Z,102608.12
2018-12-13T13:55:55.695Z,102612.72
2018-12-13T13:58:22.919Z,102617.81
2018-12-13T14:00:50.480Z,102613.04
2018-12-13T14:03:17.712Z,102610.20
2018-12-13T14:05:44.964Z,102618.39
2018-12-13T14:08:12.215Z,102610.64
2018-12-13T14:10:39.452Z,102610.84
2018-12-13T14:13:06.685Z,102606.47
2018-12-13T14:15:33.972Z,102600.91
2018-12-13T14:18:01.209Z,102599.30
2018-12-13T14:20:28.485Z,102599.65
2018-12-13T14:22:56.172Z,102604.09
2018-12-13T14:25:23.528Z,102597.72
2018-12-13T14:27:51.018Z,102593.69
2018-12-13T14:30:18.264Z,102602.80
2018-12-13T14:32:45.509Z,102596.30
2018-12-13T14:35:12.760Z,102605.05
2018-12-13T14:37:39.996Z,102605.33
2018-12-13T14:40:07.384Z,102606.84
2018-12-13T14:42:36.784Z,102603.61
2018-12-13T14:45:04.900Z,102592.85
2018-12-13T14:47:32.249Z,102598.75
2018-12-13T14:49:59.512Z,102591.46
2018-12-13T14:52:26.729Z,102597.28
2018-12-13T14:54:53.968Z,102589.95
2018-12-13T14:57:21.241Z,102592.76
2018-12-13T14:59:48.498Z,102594.64
2018-12-13T15:02:15.723Z,102601.98
2018-12-13T15:04:45.128Z,102595.09
2018-12-13T15:07:12.476Z,102601.28
2018-12-13T15:09:39.728Z,102600.33
2018-12-13T15:12:07.126Z,102606.05
2018-12-13T15:14:34.376Z,102604.70
2018-12-13T15:17:01.597Z,102603.39
2018-12-13T15:19:28.856Z,102606.83
2018-12-13T15:21:56.072Z,102611.41
2018-12-13T15:24:23.308Z,102607.05
2018-12-13T15:26:50.561Z,102602.04
2018-12-13T15:29:17.808Z,102611.16
2018-12-13T15:31:45.176Z,102609.50
2018-12-13T15:34:12.392Z,102604.29
2018-12-13T15:36:39.632Z,102601.64
2018-12-13T15:39:06.896Z,102599.53
2018-12-13T15:41:35.683Z,102598.88
2018-12-13T15:44:02.948Z,102603.77
2018-12-13T15:46:30.208Z,102599.53
2018-12-13T15:48:57.436Z,102602.14
2018-12-13T15:51:24.660Z,102601.84
2018-12-13T15:53:51.884Z,102602.41
2018-12-13T15:56:19.107Z,102598.91
2018-12-13T15:58:46.352Z,102601.44
2018-12-13T16:01:13.601Z,102588.44
2018-12-13T16:03:40.936Z,102592.99
2018-12-13T16:06:08.164Z,102595.59
2018-12-13T16:08:35.416Z,102595.09
2018-12-13T16:11:03.792Z,102603.84
2018-12-13T16:13:32.000Z,102606.00
2018-12-13T16:15:59.232Z,102610.50
2018-12-13T16:18:26.491Z,102606.95
2018-12-13T16:20:53.748Z,102605.00
2018-12-13T16:23:20.984Z,102610.97
2018-12-13T16:25:48.229Z,102604.25
2018-12-13T16:28:15.604Z,102608.94
2018-12-13T16:30:43.044Z,102606.80
2018-12-13T16:33:10.308Z,102607.64
2018-12-13T16:35:38.548Z,102602.14
2018-12-13T16:38:06.131Z,102610.98
2018-12-13T16:40:33.720Z,102602.45
2018-12-13T16:43:00.957Z,102606.44
2018-12-13T16:45:28.244Z,102610.73
2018-12-13T16:47:55.494Z,102604.59
2018-12-13T16:50:22.733Z,102606.48
2018-12-13T16:52:50.134Z,102605.39
2018-12-13T16:55:17.376Z,102604.91
2018-12-13T16:57:44.840Z,102602.61
2018-12-13T17:00:12.508Z,102600.30
2018-12-13T17:02:40.577Z,102600.19
2018-12-13T17:05:07.791Z,102594.20
2018-12-13T17:07:35.028Z,102606.77
2018-12-13T17:10:02.404Z,102602.16
2018-12-13T17:12:29.664Z,102613.68
2018-12-13T17:14:56.911Z,102614.03
2018-12-13T17:17:24.188Z,102614.25
2018-12-13T17:19:51.428Z,102615.09
2018-12-13T17:22:18.661Z,102627.20
2018-12-13T17:24:45.880Z,102623.37
2018-12-13T17:27:14.151Z,102614.00
2018-12-13T17:29:41.374Z,102624.88
2018-12-13T17:32:08.608Z,102629.56
2018-12-13T17:34:35.830Z,102624.95
2018-12-13T17:37:03.064Z,102629.25
2018-12-13T17:39:31.296Z,102628.80
2018-12-13T17:41:58.784Z,102622.42
2018-12-13T17:44:25.997Z,102625.67
2018-12-13T17:46:53.228Z,102628.09
2018-12-13T17:49:20.496Z,102630.20
2018-12-13T17:51:47.721Z,102631.23
2018-12-13T17:54:14.968Z,102633.52
2018-12-13T17:56:42.225Z,102636.42
2018-12-13T17:59:09.468Z,102630.08
2018-12-13T18:01:36.712Z,102633.02
2018-12-13T18:04:03.984Z,102633.91
2018-12-13T18:06:31.272Z,102623.80
2018-12-13T18:08:58.518Z,102624.61
2018-12-13T18:11:25.776Z,102635.28
2018-12-13T18:13:54.137Z,102629.75
2018-12-13T18:16:21.380Z,102632.43
2018-12-13T18:18:48.613Z,102630.45
2018-12-13T18:21:16.368Z,102631.30
2018-12-13T18:23:43.614Z,102632.15
2018-12-13T18:26:10.875Z,102633.68
2018-12-13T18:28:38.132Z,102629.91
2018-12-13T18:31:05.368Z,102634.29
2018-12-13T18:33:33.784Z,102630.55
2018-12-13T18:36:01.134Z,102626.17
2018-12-13T18:38:28.361Z,102624.07
2018-12-13T18:40:55.604Z,102628.25
2018-12-13T18:43:22.965Z,102628.90
2018-12-13T18:45:50.212Z,102630.06
2018-12-13T18:48:17.439Z,102629.02
2018-12-13T18:50:44.685Z,102631.05
2018-12-13T18:53:11.982Z,102626.41
2018-12-13T18:55:39.237Z,102633.00
2018-12-13T18:58:06.461Z,102637.78
2018-12-13T19:00:33.700Z,102631.45
2018-12-13T19:03:00.936Z,102633.95
2018-12-13T19:05:28.212Z,102633.64
2018-12-13T19:07:55.656Z,102633.64
2018-12-13T19:10:22.905Z,102635.58
2018-12-13T19:12:50.250Z,102637.42
2018-12-13T19:15:17.515Z,102633.23
2018-12-13T19:17:44.856Z,102639.34
2018-12-13T19:20:13.212Z,102633.24
2018-12-13T19:22:40.586Z,102636.78
2018-12-13T19:25:09.469Z,102638.53
2018-12-13T19:27:37.201Z,102643.12
2018-12-13T19:30:05.723Z,102639.02
2018-12-13T19:32:32.968Z,102641.88
2018-12-13T19:35:00.384Z,102639.47
2018-12-13T19:37:27.894Z,102644.05
2018-12-13T19:39:55.264Z,102645.48
2018-12-13T19:42:23.701Z,102635.39
2018-12-13T19:44:50.968Z,102640.30
2018-12-13T19:47:18.208Z,102643.62
2018-12-13T19:49:45.580Z,102642.36
2018-12-13T19:52:13.980Z,102641.07
2018-12-13T19:54:41.252Z,102651.52
2018-12-13T19:57:08.588Z,102650.14
2018-12-13T19:59:35.829Z,102646.21
2018-12-13T20:02:03.357Z,102650.59
2018-12-13T20:04:31.755Z,102647.46
2018-12-13T20:06:59.052Z,102643.48
2018-12-13T20:09:26.276Z,102659.34
2018-12-13T20:11:53.530Z,102649.56
2018-12-13T20:14:21.062Z,102656.76
2018-12-13T20:16:48.712Z,102653.54
2018-12-13T20:19:16.051Z,102657.02
2018-12-13T20:21:43.398Z,102654.56
2018-12-13T20:24:10.769Z,102659.27
2018-12-13T20:26:38.041Z,102664.80
2018-12-13T20:29:05.280Z,102667.92
2018-12-13T20:31:32.527Z,102662.88
2018-12-13T20:33:59.771Z,102666.48
2018-12-13T20:36:27.072Z,102660.60
2018-12-13T20:38:54.341Z,102667.43
2018-12-13T20:41:21.587Z,102663.77
2018-12-13T20:43:48.813Z,102663.77
2018-12-13T20:46:16.052Z,102669.22
2018-12-13T20:48:43.284Z,102666.95
2018-12-13T20:51:10.532Z,102667.30
2018-12-13T20:53:37.744Z,102672.08
2018-12-13T20:56:04.977Z,102676.73
2018-12-13T20:58:32.201Z,102675.07
2018-12-13T21:00:59.448Z,102668.41
2018-12-13T21:03:26.672Z,102670.02
2018-12-13T21:05:54.001Z,102671.36
2018-12-13T21:08:21.212Z,102674.80
2018-12-13T21:10:48.443Z,102683.46
2018-12-13T21:13:15.691Z,102669.17
2018-12-13T21:15:42.932Z,102680.52
2018-12-13T21:18:10.168Z,102674.53
2018-12-13T21:20:37.423Z,102680.20
2018-12-13T21:23:04.649Z,102679.98
2018-12-13T21:25:31.987Z,102682.62
2018-12-13T21:27:59.444Z,102687.09
2018-12-13T21:30:26.688Z,102690.80
2018-12-13T21:32:54.031Z,102692.89
2018-12-13T21:35:21.290Z,102692.45
2018-12-13T21:37:48.540Z,102690.39
2018-12-13T21:40:15.781Z,102692.00
2018-12-13T21:42:43.029Z,102689.01
2018-12-13T21:45:10.508Z,102690.07
2018-12-13T21:47:37.781Z,102685.66
2018-12-13T21:50:06.150Z,102683.19
2018-12-13T21:52:33.395Z,102681.49
2018-12-13T21:55:00.611Z,102670.13
2018-12-13T21:57:27.856Z,102671.50
2018-12-13T21:59:55.210Z,102671.05
2018-12-13T22:02:23.041Z,102671.73
2018-12-13T22:07:43.275Z,102672.91
2018-12-13T22:10:10.588Z,102670.41
2018-12-13T22:12:39.370Z,102669.11
2018-12-13T22:15:10.168Z,102675.47
2018-12-13T22:17:37.451Z,102667.00
2018-12-13T22:20:05.320Z,102672.14
2018-12-13T22:22:32.608Z,102670.85
2018-12-13T22:24:59.956Z,102676.84
2018-12-13T22:27:27.189Z,102681.66
2018-12-13T22:29:54.452Z,102676.36
2018-12-13T22:32:21.704Z,102676.52
2018-12-13T22:34:49.105Z,102672.70
2018-12-13T22:37:16.492Z,102676.47
2018-12-13T22:39:43.869Z,102670.16
2018-12-13T22:42:11.116Z,102670.47
2018-12-13T22:44:38.398Z,102670.59
2018-12-13T22:47:05.776Z,102667.53
2018-12-13T22:49:33.119Z,102674.35
2018-12-13T22:52:00.555Z,102676.45
2018-12-13T22:54:27.792Z,102670.68
2018-12-13T22:56:55.024Z,102674.20
2018-12-13T22:59:22.340Z,102665.80
2018-12-13T23:01:49.584Z,102671.72
2018-12-13T23:04:17.701Z,102673.72
2018-12-13T23:06:44.960Z,102670.98
2018-12-13T23:09:12.309Z,102678.90
2018-12-13T23:11:39.681Z,102669.41
2018-12-13T23:14:07.352Z,102664.83
2018-12-13T23:16:34.585Z,102662.39
2018-12-13T23:19:01.816Z,102667.21
2018-12-13T23:21:29.883Z,102662.52
2018-12-13T23:23:57.559Z,102668.83
2018-12-13T23:26:25.268Z,102669.00
2018-12-13T23:28:52.525Z,102663.20
2018-12-13T23:31:36.694Z,102673.69
2018-12-13T23:34:04.312Z,102673.72
2018-12-13T23:36:31.683Z,102673.36
2018-12-13T23:38:59.110Z,102673.60
2018-12-13T23:41:26.482Z,102668.59
2018-12-13T23:43:55.076Z,102664.83
2018-12-13T23:46:22.320Z,102671.45
2018-12-13T23:48:49.668Z,102667.37
2018-12-13T23:51:16.888Z,102662.93
2018-12-13T23:53:44.116Z,102661.30
2018-12-13T23:56:11.439Z,102667.70
2018-12-13T23:58:39.092Z,102661.47
